Time;durP1;ratioP1;P1;durP2;ratioP2;P2;SDS_P1;SDS_P2;PMS_P1;PMS_P2;Temp;Humidity;BMP_temperature;BMP_pressure;BME280_temperature;BME280_humidity;BME280_pressure;Samples;Min_cycle;Max_cycle;Signal;HPM_P1;HPM_P2
2022/06/26 00:02:05;;;;;;;5.97;5.57;;;;;;;22.26;100.00;99234.88;5049918;28;20208;-65
2022/06/26 00:04:34;;;;;;;5.33;4.83;;;;;;;22.40;100.00;99263.31;5051440;28;20211;-65
2022/06/26 00:07:01;;;;;;;7.73;5.33;;;;;;;22.49;100.00;99262.56;5051423;28;20228;-65
2022/06/26 00:09:28;;;;;;;5.97;5.47;;;;;;;22.59;100.00;99266.09;5051904;28;20275;-65
2022/06/26 00:11:55;;;;;;;7.07;5.03;;;;;;;22.70;100.00;99273.09;5043732;28;20311;-66
2022/06/26 00:14:22;;;;;;;5.13;4.60;;;;;;;22.74;100.00;99277.13;5048958;28;20573;-65
2022/06/26 00:16:49;;;;;;;5.20;4.57;;;;;;;22.78;100.00;99283.75;5045014;28;20217;-65
2022/06/26 00:19:16;;;;;;;5.30;4.90;;;;;;;22.89;100.00;99297.59;5047216;28;20566;-65
2022/06/26 00:21:44;;;;;;;4.90;4.70;;;;;;;22.98;100.00;99299.44;5051788;28;20197;-65
2022/06/26 00:24:11;;;;;;;4.53;4.23;;;;;;;22.93;100.00;99285.94;5051868;28;20291;-65
2022/06/26 00:26:38;;;;;;;4.43;4.13;;;;;;;22.93;100.00;99296.38;5051497;28;20215;-65
2022/06/26 00:29:05;;;;;;;5.00;4.70;;;;;;;23.00;100.00;99294.09;5046577;28;20204;-65
2022/06/26 00:31:32;;;;;;;5.63;5.20;;;;;;;23.06;100.00;99300.59;5034480;28;20205;-65
2022/06/26 00:33:59;;;;;;;5.97;5.57;;;;;;;23.13;100.00;99301.75;5044204;28;20677;-65
2022/06/26 00:36:25;;;;;;;4.90;4.57;;;;;;;23.22;100.00;99306.22;5043366;28;20741;-65
2022/06/26 00:38:54;;;;;;;5.07;4.57;;;;;;;23.23;100.00;99307.88;5051600;28;20765;-65
2022/06/26 00:41:21;;;;;;;5.00;4.70;;;;;;;23.28;100.00;99309.16;5042479;28;20201;-66
2022/06/26 00:43:48;;;;;;;4.90;4.50;;;;;;;23.31;100.00;99302.81;5045713;28;20610;-65
2022/06/26 00:46:15;;;;;;;4.40;4.10;;;;;;;23.35;100.00;99296.38;5051760;28;20192;-65
2022/06/26 00:48:41;;;;;;;4.67;4.23;;;;;;;23.37;100.00;99289.22;5051545;28;20193;-65
2022/06/26 00:51:08;;;;;;;4.20;4.00;;;;;;;23.37;100.00;99278.75;5051799;28;20223;-65
2022/06/26 00:53:35;;;;;;;4.80;4.40;;;;;;;23.41;100.00;99285.44;5051347;28;20209;-65
2022/06/26 00:56:04;;;;;;;4.77;4.40;;;;;;;23.36;100.00;99271.88;5051428;28;20622;-65
2022/06/26 00:58:31;;;;;;;4.70;4.43;;;;;;;23.34;100.00;99286.88;5051408;28;20712;-65
2022/06/26 01:00:58;;;;;;;6.27;5.13;;;;;;;23.32;100.00;99291.41;5050041;28;20236;-65
2022/06/26 01:03:25;;;;;;;6.47;5.50;;;;;;;23.25;100.00;99280.63;5046462;28;20205;-65
2022/06/26 01:05:53;;;;;;;5.83;5.20;;;;;;;23.35;100.00;99291.16;5050952;28;20283;-65
2022/06/26 01:08:19;;;;;;;5.67;5.27;;;;;;;23.38;100.00;99286.50;5041293;28;20665;-65
2022/06/26 01:10:48;;;;;;;5.23;5.03;;;;;;;23.36;100.00;99282.34;5039180;28;20193;-65
2022/06/26 01:13:17;;;;;;;5.57;5.13;;;;;;;23.45;100.00;99292.06;5047005;28;20201;-65
2022/06/26 01:15:44;;;;;;;5.70;5.23;;;;;;;23.50;100.00;99297.72;5034553;28;20205;-65
2022/06/26 01:18:11;;;;;;;5.83;5.40;;;;;;;23.54;100.00;99301.75;5051309;28;20216;-65
2022/06/26 01:20:39;;;;;;;6.40;5.87;;;;;;;23.55;100.00;99303.41;5044925;28;20197;-65
2022/06/26 01:23:08;;;;;;;6.23;5.50;;;;;;;23.56;100.00;99307.66;5045088;28;20657;-65
2022/06/26 01:25:44;;;;;;;6.23;5.47;;;;;;;23.56;100.00;99307.66;5037752;28;20204;-65
2022/06/26 01:28:10;;;;;;;6.10;5.70;;;;;;;23.57;100.00;99314.56;5048967;28;20203;-65
2022/06/26 01:30:38;;;;;;;8.87;5.67;;;;;;;23.55;100.00;99318.28;5050522;28;20215;-65
2022/06/26 01:33:06;;;;;;;5.70;5.20;;;;;;;23.53;100.00;99315.78;5041239;28;20581;-65
2022/06/26 01:35:33;;;;;;;5.50;5.07;;;;;;;23.51;100.00;99318.53;5050777;28;20208;-65
2022/06/26 01:38:11;;;;;;;5.27;4.87;;;;;;;23.43;100.00;99307.03;5050478;28;20699;-64
2022/06/26 01:40:38;;;;;;;5.87;5.00;;;;;;;23.55;100.00;99324.34;5045301;28;20196;-65
2022/06/26 01:43:04;;;;;;;5.20;5.00;;;;;;;23.55;100.00;99313.03;5045143;28;20235;-65
2022/06/26 01:45:31;;;;;;;6.23;5.93;;;;;;;23.57;100.00;99316.34;5039571;28;20197;-65
2022/06/26 01:47:58;;;;;;;5.97;5.37;;;;;;;23.59;100.00;99311.84;5033086;28;20204;-65
2022/06/26 01:50:25;;;;;;;5.60;5.13;;;;;;;23.54;100.00;99317.44;5040634;28;20684;-65
2022/06/26 01:52:52;;;;;;;5.80;5.40;;;;;;;23.56;100.00;99327.75;5050937;28;20196;-65
2022/06/26 01:55:20;;;;;;;5.90;5.60;;;;;;;23.53;100.00;99334.09;5037097;28;20197;-65
2022/06/26 01:57:48;;;;;;;5.30;5.07;;;;;;;23.53;100.00;99331.47;5053377;28;20216;-65
2022/06/26 02:00:15;;;;;;;5.33;5.03;;;;;;;23.49;100.00;99340.53;5043305;28;20201;-65
2022/06/26 02:02:42;;;;;;;5.73;5.43;;;;;;;23.50;100.00;99348.28;5050683;28;20200;-65
2022/06/26 02:05:09;;;;;;;5.20;4.97;;;;;;;23.45;100.00;99341.78;5054742;28;20208;-65
2022/06/26 02:07:36;;;;;;;5.83;5.43;;;;;;;23.42;100.00;99336.81;5054547;28;20193;-65
2022/06/26 02:15:33;;;;;;;5.73;5.43;;;;;;;23.09;100.00;99350.03;5054455;28;20208;-65
2022/06/26 02:18:00;;;;;;;6.27;5.80;;;;;;;23.00;100.00;99339.34;5040306;28;20220;-65
2022/06/26 02:20:27;;;;;;;6.30;6.00;;;;;;;23.10;100.00;99343.84;5054103;28;20212;-65
2022/06/26 02:22:54;;;;;;;5.87;5.57;;;;;;;23.10;100.00;99343.84;5054362;28;20201;-65
2022/06/26 02:25:21;;;;;;;6.60;6.30;;;;;;;23.17;100.00;99350.22;5044532;28;20200;-65
2022/06/26 02:27:49;;;;;;;6.50;6.10;;;;;;;23.22;100.00;99353.28;5047569;28;20200;-65
2022/06/26 02:30:16;;;;;;;5.40;5.10;;;;;;;23.20;100.00;99349.97;5054048;28;20692;-65
2022/06/26 02:32:43;;;;;;;5.63;5.43;;;;;;;23.20;100.00;99356.03;5053987;28;20201;-65
2022/06/26 02:35:10;;;;;;;6.47;6.03;;;;;;;23.23;100.00;99354.97;5046988;28;20216;-65
2022/06/26 02:37:38;;;;;;;5.83;5.43;;;;;;;23.25;100.00;99353.03;5053945;28;20217;-65
2022/06/26 02:40:07;;;;;;;5.30;4.90;;;;;;;23.27;100.00;99348.50;5047199;28;20222;-65
2022/06/26 02:42:33;;;;;;;5.57;5.17;;;;;;;23.28;100.00;99351.00;5047068;28;20196;-65
2022/06/26 02:45:02;;;;;;;9.20;5.50;;;;;;;23.26;100.00;99349.47;5041285;28;20219;-65
2022/06/26 02:47:29;;;;;;;6.37;5.83;;;;;;;23.17;100.00;99339.75;5052822;28;20611;-65
2022/06/26 02:49:55;;;;;;;6.07;5.63;;;;;;;23.05;100.00;99325.06;5053721;28;20586;-64
2022/06/26 02:52:22;;;;;;;5.80;5.50;;;;;;;22.87;100.00;99328.28;5053572;28;20201;-65
2022/06/26 02:54:49;;;;;;;5.30;5.00;;;;;;;22.65;100.00;99317.84;5053285;28;20665;-65
2022/06/26 02:57:17;;;;;;;5.70;5.30;;;;;;;22.35;100.00;99309.88;5053395;28;20677;-65
2022/06/26 02:59:43;;;;;;;5.57;5.07;;;;;;;22.04;100.00;99308.00;5052787;28;20262;-65
2022/06/26 03:02:12;;;;;;;5.90;5.50;;;;;;;21.94;100.00;99315.72;5053408;28;20212;-64
2022/06/26 03:04:38;;;;;;;5.37;4.97;;;;;;;22.02;100.00;99322.97;5052989;28;20203;-65
2022/06/26 03:07:05;;;;;;;5.47;4.97;;;;;;;22.09;100.00;99322.38;5038520;28;20200;-64
2022/06/26 03:09:32;;;;;;;4.80;4.40;;;;;;;22.09;100.00;99314.56;5036060;28;20220;-64
2022/06/26 03:11:59;;;;;;;6.57;6.03;;;;;;;21.98;100.00;99312.78;5049843;28;20715;-64
2022/06/26 03:14:26;;;;;;;4.70;4.50;;;;;;;21.88;100.00;99309.19;5041016;28;20660;-65
2022/06/26 03:16:53;;;;;;;6.00;5.60;;;;;;;22.00;100.00;99328.34;5052086;28;20199;-65
2022/06/26 03:19:21;;;;;;;6.30;5.80;;;;;;;22.05;100.00;99330.56;5041875;28;20219;-65
2022/06/26 03:21:48;;;;;;;5.07;4.77;;;;;;;22.11;100.00;99338.75;5052651;28;20205;-65
2022/06/26 03:24:15;;;;;;;6.10;5.70;;;;;;;22.19;100.00;99346.00;5053051;28;20201;-65
2022/06/26 03:26:42;;;;;;;6.43;5.40;;;;;;;22.22;100.00;99345.75;5053048;28;20196;-65
2022/06/26 03:29:11;;;;;;;7.87;7.00;;;;;;;22.27;100.00;99340.97;5047202;28;20208;-65
2022/06/26 03:31:39;;;;;;;7.37;6.13;;;;;;;22.33;100.00;99340.50;5052359;28;20204;-65
2022/06/26 03:34:06;;;;;;;6.03;5.67;;;;;;;22.32;100.00;99336.25;5051969;28;20192;-65
2022/06/26 03:36:35;;;;;;;5.67;4.93;;;;;;;22.43;100.00;99344.88;5052135;28;20189;-64
2022/06/26 03:39:01;;;;;;;6.27;5.70;;;;;;;22.47;100.00;99348.91;5051464;28;20231;-65
2022/06/26 03:41:28;;;;;;;7.40;5.67;;;;;;;22.53;100.00;99344.97;5051766;28;20197;-65
2022/06/26 03:43:55;;;;;;;6.43;5.90;;;;;;;22.58;100.00;99342.84;5038254;28;20197;-65
2022/06/26 03:46:22;;;;;;;5.90;5.37;;;;;;;22.64;100.00;99341.50;5051405;28;20573;-65
2022/06/26 03:48:49;;;;;;;6.00;5.50;;;;;;;22.68;100.00;99337.72;5052244;28;20208;-65
2022/06/26 03:51:16;;;;;;;4.70;4.47;;;;;;;22.70;100.00;99331.41;5042118;28;20212;-65
2022/06/26 03:53:44;;;;;;;5.43;5.13;;;;;;;22.70;100.00;99336.66;5036939;28;20608;-65
2022/06/26 03:56:11;;;;;;;5.97;5.17;;;;;;;22.72;100.00;99339.13;5049550;28;20589;-65
2022/06/26 03:58:38;;;;;;;5.97;5.13;;;;;;;22.76;100.00;99346.59;5052311;28;20221;-64
2022/06/26 04:01:05;;;;;;;10.70;6.67;;;;;;;22.78;100.00;99352.50;5052231;28;20578;-65
2022/06/26 04:03:32;;;;;;;6.37;4.77;;;;;;;22.81;100.00;99354.88;5039801;28;20196;-64
2022/06/26 04:05:59;;;;;;;5.80;5.40;;;;;;;22.81;100.00;99348.84;5052042;28;20204;-65
2022/06/26 04:08:26;;;;;;;6.70;6.00;;;;;;;22.88;100.00;99356.03;5052298;28;20595;-65
2022/06/26 04:10:54;;;;;;;7.17;6.57;;;;;;;22.92;100.00;99357.47;5052054;28;20201;-64
2022/06/26 04:13:21;;;;;;;10.27;5.80;;;;;;;22.85;100.00;99340.63;5051949;28;20714;-64
2022/06/26 04:15:48;;;;;;;5.77;5.37;;;;;;;22.89;100.00;99335.97;5037093;28;20206;-64
2022/06/26 04:18:14;;;;;;;7.03;6.27;;;;;;;22.97;100.00;99344.84;5048960;28;20266;-64
2022/06/26 04:20:43;;;;;;;6.70;6.20;;;;;;;22.96;100.00;99343.19;5050629;28;20203;-64
2022/06/26 04:23:13;;;;;;;8.50;5.80;;;;;;;22.96;100.00;99353.66;5051822;28;20224;-65
2022/06/26 04:25:40;;;;;;;6.10;5.53;;;;;;;22.95;100.00;99351.16;5051966;28;20197;-64
2022/06/26 04:28:09;;;;;;;5.67;5.27;;;;;;;22.92;100.00;99347.00;5051658;28;20274;-65
2022/06/26 04:30:36;;;;;;;6.47;5.87;;;;;;;22.80;100.00;99331.50;5051696;28;20203;-65
2022/06/26 04:33:03;;;;;;;6.10;5.60;;;;;;;22.91;100.00;99345.34;5048183;28;20200;-65
2022/06/26 04:35:30;;;;;;;6.33;5.73;;;;;;;22.92;100.00;99341.78;5042768;28;20196;-65
2022/06/26 04:37:58;;;;;;;6.67;6.20;;;;;;;22.92;100.00;99339.16;5038488;28;20197;-64
2022/06/26 04:40:25;;;;;;;6.57;5.97;;;;;;;22.87;100.00;99332.66;5051470;28;20231;-65
2022/06/26 04:42:52;;;;;;;6.40;6.00;;;;;;;22.90;100.00;99341.09;5045970;28;20608;-65
2022/06/26 04:45:20;;;;;;;6.03;5.53;;;;;;;22.88;100.00;99345.59;5050501;28;20209;-65
2022/06/26 04:47:48;;;;;;;7.50;6.80;;;;;;;22.85;100.00;99347.63;5047387;28;20224;-65
2022/06/26 04:50:15;;;;;;;9.03;6.60;;;;;;;22.77;100.00;99352.66;5048941;28;20213;-65
2022/06/26 04:52:44;;;;;;;8.07;6.67;;;;;;;22.74;100.00;99353.75;5050130;28;20291;-64
2022/06/26 04:55:12;;;;;;;6.73;6.33;;;;;;;22.75;100.00;99360.59;5050538;28;20197;-65
2022/06/26 04:57:38;;;;;;;8.23;7.53;;;;;;;22.77;100.00;99368.34;5050894;28;20703;-64
2022/06/26 05:00:08;;;;;;;8.07;7.57;;;;;;;22.73;100.00;99362.53;5047503;28;20689;-65
2022/06/26 05:02:37;;;;;;;7.50;6.80;;;;;;;22.67;100.00;99336.91;5049415;28;20581;-64
2022/06/26 05:05:04;;;;;;;9.20;7.93;;;;;;;22.78;100.00;99352.50;5044367;28;20668;-64
2022/06/26 05:07:32;;;;;;;7.00;6.70;;;;;;;22.79;100.00;99356.81;5051109;28;20205;-65
2022/06/26 05:09:59;;;;;;;10.63;8.33;;;;;;;22.52;100.00;99307.56;5051218;28;20197;-65
2022/06/26 05:12:26;;;;;;;8.07;7.50;;;;;;;22.88;100.00;99361.28;5047071;28;20201;-64
2022/06/26 05:14:52;;;;;;;9.20;8.27;;;;;;;22.95;100.00;99370.28;5050034;28;20200;-64
2022/06/26 05:17:19;;;;;;;7.90;7.30;;;;;;;23.00;100.00;99364.69;5051172;28;20604;-64
2022/06/26 05:19:47;;;;;;;7.93;7.30;;;;;;;23.04;100.00;99371.31;5051077;28;20220;-65
2022/06/26 05:22:14;;;;;;;9.33;8.43;;;;;;;23.03;100.00;99353.97;5051067;28;20207;-65
2022/06/26 05:24:42;;;;;;;9.33;8.40;;;;;;;23.01;100.00;99361.94;5051018;28;20196;-65
2022/06/26 05:27:09;;;;;;;8.90;8.23;;;;;;;23.06;100.00;99374.66;5051125;28;20215;-65
2022/06/26 05:29:36;;;;;;;9.20;8.50;;;;;;;23.08;100.00;99371.88;5047895;28;20655;-65
2022/06/26 05:32:03;;;;;;;9.80;9.00;;;;;;;22.99;100.00;99348.19;5041833;28;20205;-64
2022/06/26 05:34:30;;;;;;;10.10;9.23;;;;;;;23.17;100.00;99381.59;5050819;28;20196;-64
2022/06/26 05:36:58;;;;;;;9.67;8.33;;;;;;;23.19;100.00;99382.31;5041012;28;20201;-64
2022/06/26 05:39:25;;;;;;;9.10;8.23;;;;;;;23.17;100.00;99385.03;5053498;28;20706;-64
2022/06/26 05:41:52;;;;;;;8.27;7.70;;;;;;;23.22;100.00;99390.75;5054677;28;20203;-64
2022/06/26 05:44:19;;;;;;;8.90;8.20;;;;;;;23.28;100.00;99394.63;5054963;28;20197;-64
2022/06/26 05:46:45;;;;;;;9.60;8.80;;;;;;;23.33;100.00;99402.91;5054412;28;20669;-65
2022/06/26 05:49:12;;;;;;;9.83;8.97;;;;;;;23.23;100.00;99381.91;5051917;28;20201;-64
2022/06/26 05:51:39;;;;;;;12.00;10.80;;;;;;;22.98;100.00;99345.66;5054052;28;20204;-64
2022/06/26 05:54:07;;;;;;;12.27;11.17;;;;;;;23.40;100.00;99398.88;5054222;28;20197;-64
2022/06/26 05:56:34;;;;;;;13.90;12.50;;;;;;;23.42;100.00;99402.22;5044115;28;20208;-65
2022/06/26 05:59:01;;;;;;;16.37;12.20;;;;;;;23.48;100.00;99399.09;5040270;28;20224;-64
2022/06/26 06:01:28;;;;;;;13.17;11.97;;;;;;;23.52;100.00;99392.66;5054497;28;20204;-65
2022/06/26 06:03:54;;;;;;;13.43;11.97;;;;;;;23.60;100.00;99394.59;5040296;28;20209;-65
2022/06/26 06:06:21;;;;;;;13.30;12.10;;;;;;;23.66;100.00;99396.69;5054087;28;20691;-64
2022/06/26 06:08:49;;;;;;;13.37;11.60;;;;;;;23.73;100.00;99403.91;5052802;28;20549;-65
2022/06/26 06:11:17;;;;;;;13.60;12.40;;;;;;;23.83;100.00;99402.19;5055552;28;20204;-65
2022/06/26 06:13:44;;;;;;;14.30;12.87;;;;;;;23.87;100.00;99406.22;5053990;28;20576;-65
2022/06/26 06:16:11;;;;;;;14.47;12.97;;;;;;;23.92;100.00;99406.66;5051286;28;20205;-63
2022/06/26 06:18:37;;;;;;;13.03;11.87;;;;;;;23.97;100.00;99407.06;5054149;28;20212;-64
2022/06/26 06:21:04;;;;;;;13.87;12.53;;;;;;;24.09;100.00;99407.81;5044121;28;20203;-68
2022/06/26 06:23:31;;;;;;;13.43;12.17;;;;;;;24.18;100.00;99411.47;5053968;28;20208;-64
2022/06/26 06:25:58;;;;;;;15.37;13.97;;;;;;;24.13;100.00;99390.09;5047878;28;20700;-67
2022/06/26 06:28:26;;;;;;;14.83;13.63;;;;;;;24.26;100.00;99414.28;5052819;28;20211;-65
2022/06/26 06:30:53;;;;;;;13.63;12.53;;;;;;;24.24;100.00;99416.19;5053160;28;20279;-66
2022/06/26 06:33:20;;;;;;;11.97;11.00;;;;;;;24.18;100.00;99396.59;5053353;28;20204;-65
2022/06/26 06:35:48;;;;;;;11.57;10.63;;;;;;;24.31;100.00;99417.31;5041024;28;20201;-66
2022/06/26 06:38:15;;;;;;;12.37;11.40;;;;;;;24.34;100.00;99411.81;5052301;28;20283;-64
2022/06/26 06:40:42;;;;;;;28.40;25.87;;;;;;;24.34;100.00;99417.88;5051854;28;20205;-65
2022/06/26 06:43:12;;;;;;;49.43;44.33;;;;;;;24.39;100.00;99425.34;5051933;28;20201;-66
2022/06/26 06:45:40;;;;;;;17.93;16.57;;;;;;;24.50;100.00;99425.22;5051264;28;20193;-66
2022/06/26 06:48:08;;;;;;;22.60;20.30;;;;;;;24.57;100.00;99421.13;5049540;28;20197;-65
2022/06/26 06:50:35;;;;;;;21.33;19.37;;;;;;;24.60;100.00;99420.84;5052135;28;20577;-65
2022/06/26 06:53:02;;;;;;;23.67;21.27;;;;;;;24.66;100.00;99422.94;5046684;28;20228;-64
2022/06/26 06:55:29;;;;;;;12.23;11.30;;;;;;;24.68;100.00;99421.03;5040881;28;20284;-67
2022/06/26 06:57:56;;;;;;;28.53;20.67;;;;;;;24.73;100.00;99424.06;5050405;28;20204;-65
2022/06/26 07:00:23;;;;;;;28.63;20.30;;;;;;;24.78;100.00;99416.59;5050262;28;20223;-67
2022/06/26 07:02:52;;;;;;;27.67;18.97;;;;;;;24.65;100.00;99405.56;5040331;28;20204;-66
2022/06/26 07:05:20;;;;;;;36.43;21.50;;;;;;;24.72;100.00;99414.53;5050958;28;20199;-67
2022/06/26 07:07:47;;;;;;;12.10;10.13;;;;;;;24.70;100.00;99413.84;5051466;28;20213;-67
2022/06/26 07:10:13;;;;;;;8.70;8.10;;;;;;;24.67;100.00;99414.13;5049825;28;20694;-66
2022/06/26 07:12:40;;;;;;;16.47;14.30;;;;;;;24.72;100.00;99411.09;5051136;28;20196;-66
2022/06/26 07:15:08;;;;;;;13.13;10.73;;;;;;;24.83;100.00;99418.88;5050633;28;20660;-66
2022/06/26 07:17:35;;;;;;;8.57;8.07;;;;;;;24.88;100.00;99424.53;5038541;28;20951;-69
2022/06/26 07:20:05;;;;;;;11.33;10.23;;;;;;;24.95;100.00;99410.72;5051120;28;20711;-69
2022/06/26 07:22:31;;;;;;;8.00;7.40;;;;;;;25.36;100.00;99416.69;5036924;28;20201;-68
2022/06/26 07:24:58;;;;;;;5.63;5.13;;;;;;;25.65;100.00;99417.50;5043719;28;20196;-67
2022/06/26 07:27:25;;;;;;;4.80;4.53;;;;;;;25.86;100.00;99420.78;5038980;28;20208;-67
2022/06/26 07:29:52;;;;;;;7.23;5.27;;;;;;;25.98;100.00;99411.75;5043930;28;20285;-67
2022/06/26 07:32:19;;;;;;;7.13;4.90;;;;;;;25.97;100.00;99404.84;5049574;28;20197;-67
2022/06/26 07:34:46;;;;;;;6.27;5.47;;;;;;;26.10;100.00;99418.50;5051272;28;20669;-67
2022/06/26 07:37:14;;;;;;;4.40;4.20;;;;;;;26.16;100.00;99421.50;5051294;28;20201;-67
2022/06/26 07:39:41;;;;;;;3.77;3.57;;;;;;;26.26;100.00;99427.59;5009381;28;1217233;-67
2022/06/26 07:42:09;;;;;;;5.22;4.82;;;;;;;26.26;100.00;99423.16;5051427;28;20451;-67
2022/06/26 07:44:35;;;;;;;4.23;4.03;;;;;;;26.40;100.00;99424.44;5050602;28;20200;-67
2022/06/26 07:47:02;;;;;;;4.47;4.17;;;;;;;26.45;100.00;99422.22;5047979;28;20205;-68
2022/06/26 07:49:29;;;;;;;3.70;3.37;;;;;;;26.47;98.58;99420.28;5051460;28;20201;-66
2022/06/26 07:51:56;;;;;;;3.87;3.67;;;;;;;26.47;100.00;99421.09;5050433;28;20205;-66
2022/06/26 07:54:24;;;;;;;3.70;3.40;;;;;;;26.41;97.34;99423.50;5031338;28;20451;-74
2022/06/26 07:56:51;;;;;;;3.47;3.27;;;;;;;26.14;100.00;99407.69;5032037;28;20224;-75
2022/06/26 07:59:18;;;;;;;3.50;3.28;;;;;;;26.10;97.95;99434.25;5039999;28;20517;-69
2022/06/26 08:01:45;;;;;;;3.93;3.53;;;;;;;26.19;98.73;99437.00;5048398;28;20201;-70
2022/06/26 08:04:12;;;;;;;3.10;2.87;;;;;;;26.25;98.98;99425.91;5051953;28;20207;-70
2022/06/26 08:06:39;;;;;;;3.20;2.93;;;;;;;26.34;100.00;99425.03;5051506;28;20207;-70
2022/06/26 08:09:07;;;;;;;3.03;2.93;;;;;;;26.46;100.00;99416.81;5051527;28;20703;-70
2022/06/26 08:11:35;;;;;;;3.13;2.93;;;;;;;26.60;100.00;99426.03;5050892;28;20258;-70
2022/06/26 08:14:02;;;;;;;3.63;2.50;;;;;;;26.66;99.67;99425.44;5049983;28;20209;-70
2022/06/26 08:16:29;;;;;;;4.30;3.30;;;;;;;26.76;98.58;99425.38;5049854;28;20211;-69
2022/06/26 08:18:56;;;;;;;3.73;3.40;;;;;;;26.83;99.02;99423.84;5050929;28;20223;-69
2022/06/26 08:24:07;;;;;;;4.43;3.53;;;;;;;26.93;99.19;99425.44;5051225;28;20709;-69
2022/06/26 08:26:36;;;;;;;2.97;2.87;;;;;;;27.00;97.92;99429.13;5050417;28;20197;-69
2022/06/26 08:29:03;;;;;;;4.57;3.53;;;;;;;27.13;95.73;99442.75;5031074;28;20201;-69
2022/06/26 08:31:29;;;;;;;3.17;2.87;;;;;;;27.25;95.77;99443.31;5045721;28;20295;-69
2022/06/26 08:33:56;;;;;;;5.80;3.77;;;;;;;27.34;95.19;99436.31;5050861;28;20980;-69
2022/06/26 08:36:23;;;;;;;3.40;3.10;;;;;;;27.37;94.08;99434.22;5051347;28;20576;-69
2022/06/26 08:38:50;;;;;;;3.13;2.53;;;;;;;27.32;95.53;99439.13;5050815;28;20693;-69
2022/06/26 08:41:20;;;;;;;4.30;3.90;;;;;;;27.35;93.34;99441.44;5049879;28;20692;-69
2022/06/26 08:43:50;;;;;;;3.17;2.40;;;;;;;27.38;90.51;99443.78;5048238;28;20201;-69
2022/06/26 08:46:21;;;;;;;4.10;3.27;;;;;;;27.35;90.82;99444.09;5051037;28;20200;-69
2022/06/26 08:48:52;;;;;;;3.10;2.90;;;;;;;27.40;92.57;99441.81;5051007;28;20668;-69
2022/06/26 08:51:20;;;;;;;2.80;2.37;;;;;;;27.34;92.03;99446.84;5046643;28;20576;-69
2022/06/26 08:53:47;;;;;;;2.47;2.37;;;;;;;27.41;92.52;99443.47;5048644;28;20215;-69
2022/06/26 08:56:14;;;;;;;2.47;2.30;;;;;;;27.44;91.55;99445.81;5050907;28;20202;-69
2022/06/26 08:58:41;;;;;;;3.83;2.90;;;;;;;27.40;93.79;99435.75;5051050;28;20196;-69
2022/06/26 09:01:09;;;;;;;5.23;3.00;;;;;;;27.49;90.82;99445.38;5048816;28;20219;-69
2022/06/26 09:03:36;;;;;;;4.73;3.17;;;;;;;27.54;92.96;99440.47;5050185;28;20200;-69
2022/06/26 09:06:03;;;;;;;3.20;2.90;;;;;;;27.58;89.65;99441.81;5050240;28;20204;-69
2022/06/26 09:08:31;;;;;;;3.17;2.93;;;;;;;27.72;91.73;99441.28;5050417;28;20204;-69
2022/06/26 09:10:58;;;;;;;3.23;2.90;;;;;;;27.96;97.87;99438.78;5050587;28;20631;-69
2022/06/26 09:13:37;;;;;;;2.57;2.37;;;;;;;28.18;88.64;99442.72;5046173;28;20254;-69
2022/06/26 09:16:04;;;;;;;3.73;3.10;;;;;;;28.38;88.78;99438.03;5050021;28;20208;-69
2022/06/26 09:18:36;;;;;;;2.50;2.33;;;;;;;28.62;89.16;99441.63;5048969;28;20227;-69
2022/06/26 09:21:05;;;;;;;3.17;2.97;;;;;;;28.61;87.94;99407.47;5049901;28;20223;-69
2022/06/26 09:23:33;;;;;;;3.75;3.55;;;;;;;28.97;85.51;99434.47;5049709;28;20730;-69
2022/06/26 09:26:00;;;;;;;2.80;2.70;;;;;;;29.21;89.39;99436.34;5051338;28;20200;-69
2022/06/26 09:28:28;;;;;;;3.53;3.30;;;;;;;29.30;89.33;99440.66;5048596;28;20228;-69
2022/06/26 09:30:56;;;;;;;4.63;3.10;;;;;;;29.34;89.07;99442.00;5051071;28;20699;-69
2022/06/26 09:33:26;;;;;;;2.70;2.60;;;;;;;29.50;85.03;99442.00;5049358;28;20209;-69
2022/06/26 09:35:55;;;;;;;2.83;2.63;;;;;;;29.74;83.47;99443.75;5048953;28;20223;-69
2022/06/26 09:38:25;;;;;;;3.00;2.85;;;;;;;29.76;79.59;99425.94;5052146;28;20215;-69
2022/06/26 09:40:53;;;;;;;2.80;2.70;;;;;;;29.84;79.47;99434.72;5050759;28;20222;-69
2022/06/26 09:43:29;;;;;;;3.20;2.92;;;;;;;29.91;78.30;99440.97;5047445;28;20207;-69
2022/06/26 09:45:58;;;;;;;3.47;2.53;;;;;;;29.70;76.76;99440.63;5050129;28;20931;-70
2022/06/26 09:48:26;;;;;;;2.38;2.25;;;;;;;29.73;77.09;99432.38;5045471;28;20850;-69
2022/06/26 09:50:55;;;;;;;2.65;2.45;;;;;;;29.91;74.94;99435.69;5048544;28;20208;-69
2022/06/26 09:53:23;;;;;;;2.50;2.40;;;;;;;30.02;74.85;99437.97;5048335;28;20208;-69
2022/06/26 09:55:54;;;;;;;5.75;2.83;;;;;;;30.04;79.22;99441.28;5048978;28;20584;-70
2022/06/26 09:58:21;;;;;;;2.47;2.33;;;;;;;29.92;76.52;99432.03;5048766;28;20200;-69
2022/06/26 10:06:29;;;;;;;2.55;2.45;;;;;;;30.06;81.17;99439.28;5044706;28;20207;-70
2022/06/26 10:08:57;;;;;;;3.22;2.72;;;;;;;30.06;75.40;99443.75;5048409;28;20204;-69
2022/06/26 10:11:27;;;;;;;3.88;3.67;;;;;;;30.09;77.79;99438.94;5042235;28;20203;-69
2022/06/26 10:13:57;;;;;;;2.35;2.25;;;;;;;30.19;74.29;99442.22;5047745;28;20200;-70
2022/06/26 10:16:39;;;;;;;2.55;2.45;;;;;;;30.29;74.57;99427.97;5046187;28;20584;-70
2022/06/26 10:19:23;;;;;;;2.50;2.40;;;;;;;30.31;72.27;99426.00;5043851;28;20204;-68
2022/06/26 10:21:52;;;;;;;2.65;2.47;;;;;;;30.44;71.75;99426.28;5047774;28;20197;-69
2022/06/26 10:24:20;;;;;;;1.98;1.80;;;;;;;30.52;69.59;99418.31;5050602;28;20227;-69
2022/06/26 10:26:55;;;;;;;2.30;2.20;;;;;;;30.57;70.66;99416.78;5051018;28;20626;-69
2022/06/26 10:29:33;;;;;;;2.88;2.78;;;;;;;30.49;69.26;99419.50;5049415;28;20204;-69
2022/06/26 10:32:00;;;;;;;2.95;2.50;;;;;;;30.39;71.68;99418.84;5052531;28;20223;-69
2022/06/26 10:34:28;;;;;;;3.22;3.03;;;;;;;30.27;72.38;99414.09;5052676;28;20204;-68
2022/06/26 10:37:01;;;;;;;2.10;1.90;;;;;;;30.35;69.50;99419.34;5051081;28;20684;-68
2022/06/26 10:39:46;;;;;;;2.30;2.20;;;;;;;30.26;67.97;99418.56;5050473;28;20704;-69
2022/06/26 10:45:06;;;;;;;2.33;2.22;;;;;;;30.04;69.10;99422.78;5052908;28;20207;-69
2022/06/26 10:47:46;;;;;;;2.22;2.13;;;;;;;29.67;69.85;99411.91;5052988;28;20212;-69
2022/06/26 10:50:40;;;;;;;2.45;2.30;;;;;;;29.70;71.63;99411.56;5051012;28;20211;-69
2022/06/26 10:53:20;;;;;;;2.38;2.20;;;;;;;29.66;72.08;99411.06;5028008;28;20228;-70
2022/06/26 10:55:51;;;;;;;2.65;2.55;;;;;;;29.64;73.61;99406.94;5047010;28;20204;-69
2022/06/26 10:58:27;;;;;;;2.53;2.33;;;;;;;29.69;72.22;99404.66;5052454;28;20204;-68
2022/06/26 11:00:56;;;;;;;2.17;2.08;;;;;;;29.51;70.32;99401.34;5052470;28;20224;-70
2022/06/26 11:03:23;;;;;;;2.75;2.60;;;;;;;29.33;70.61;99398.06;5052916;28;20211;-69
2022/06/26 11:05:55;;;;;;;2.40;2.30;;;;;;;29.30;71.77;99399.22;5049859;28;20676;-69
2022/06/26 11:08:30;;;;;;;2.50;2.40;;;;;;;29.25;70.53;99395.41;5051285;28;20204;-70
2022/06/26 11:11:01;;;;;;;6.05;4.65;;;;;;;29.29;70.46;99386.19;5052484;28;20192;-70
2022/06/26 11:13:29;;;;;;;3.80;3.53;;;;;;;29.32;70.85;99385.84;5052131;28;20200;-69
2022/06/26 11:15:56;;;;;;;3.05;2.85;;;;;;;29.37;69.93;99394.91;5036239;28;20239;-69
2022/06/26 11:18:23;;;;;;;3.85;3.45;;;;;;;29.37;71.12;99388.84;5052365;28;20196;-70
2022/06/26 11:20:53;;;;;;;2.80;2.50;;;;;;;29.54;71.75;99385.16;5050201;28;20573;-69
2022/06/26 11:23:24;;;;;;;2.25;2.15;;;;;;;29.50;70.45;99368.81;5052662;28;20600;-71
2022/06/26 11:25:56;;;;;;;2.45;2.35;;;;;;;29.73;72.63;99384.78;5052937;28;20197;-70
2022/06/26 11:28:30;;;;;;;2.53;2.42;;;;;;;29.78;70.13;99385.13;5052950;28;20648;-70
2022/06/26 11:30:57;;;;;;;2.63;2.53;;;;;;;29.91;68.98;99382.81;5048741;28;20224;-70
2022/06/26 11:33:26;;;;;;;3.72;2.45;;;;;;;29.94;68.34;99371.06;5052636;28;20239;-70
2022/06/26 11:35:54;;;;;;;2.35;2.25;;;;;;;29.86;67.84;99377.19;5050530;28;20333;-69
2022/06/26 11:38:23;;;;;;;2.40;2.20;;;;;;;29.78;65.96;99371.09;5050633;28;20236;-70
2022/06/26 11:40:52;;;;;;;2.40;2.13;;;;;;;29.70;69.08;99380.69;5046794;28;20220;-70
2022/06/26 11:43:20;;;;;;;2.33;2.22;;;;;;;29.92;70.47;99367.78;5050973;28;20291;-69
2022/06/26 11:45:53;;;;;;;2.03;1.92;;;;;;;30.11;68.09;99370.81;5051278;28;20200;-69
2022/06/26 11:48:21;;;;;;;4.15;3.80;;;;;;;30.07;67.27;99364.25;5047655;28;20209;-69